»·PEaware :: N212MH KJFK-KEWR

N212MH :: KJFK-KEWR

FLIGHT INFORMATION

Flight Status: Arrived
Operator: Privately registered:
United States
More flights under this callsign
Pilot: Erik A. (17503)
Aircraft: AERMACCHI WARRIOR
(F260)
More flights by this aircraft type
Origin: KJFK Kennedy Intl
United States
Destination: KEWR Newark Intl
United States
More flights between these airports :: More routes between these airports
Route: JFK5 V16 DIXIE V276 RBV V249 SBJ
File this flight plan on PilotEdge
Remarks:
Altitude:
(Current/Filed)
6,000ft
Speed:
(Current/Filed)
160kts
Departed: 07-Dec-22 11:15 AM
Arrived: 07-Dec-22 12:02 PM
Distance/Time
Traveled:
18nm/0:47
Distance/Time
To Go:
Arrived

Flight Plot

Page will automatically refresh every two minutes.

Flight plan parsing failed; only flown route is shown


Map Options




Map Legend


Flown Route
Filed Route
Departure Airport
Arrival Airport
Navaid (VOR, NDB)
Fix

Horizontal Profiles

Position Reports

Time Latitude Longitude Heading Altitude Ground
Speed
07-Dec-22 11:08 40.649250 -73.810953 301 10ft 0kts
07-Dec-22 11:09 40.649250 -73.810953 301 10ft 0kts
07-Dec-22 11:10 40.649250 -73.810953 301 10ft 0kts
07-Dec-22 11:11 40.649455 -73.811462 285 10ft 0kts
07-Dec-22 11:12 40.649565 -73.813363 298 10ft 11kts
07-Dec-22 11:13 40.649194 -73.815797 215 10ft 0kts
07-Dec-22 11:14 40.646406 -73.812352 119 10ft 80kts
07-Dec-22 11:15 40.626691 -73.776998 154 894ft 125kts
07-Dec-22 11:16 40.592166 -73.766964 166 2218ft 124kts
07-Dec-22 11:17 40.564105 -73.792041 226 3350ft 126kts
07-Dec-22 11:18 40.540075 -73.827682 227 4296ft 132kts
07-Dec-22 11:19 40.515524 -73.864119 223 5093ft 134kts
07-Dec-22 11:20 40.483884 -73.889454 205 5822ft 134kts
07-Dec-22 11:21 40.449506 -73.916756 208 5970ft 158kts
07-Dec-22 11:22 40.421029 -73.958721 269 5687ft 179kts
07-Dec-22 11:23 40.420783 -74.027197 270 4873ft 191kts
07-Dec-22 11:24 40.420755 -74.098508 269 3996ft 188kts
07-Dec-22 11:25 40.419809 -74.165874 270 3585ft 190kts
07-Dec-22 11:26 40.444246 -74.219498 339 3005ft 183kts
07-Dec-22 11:27 40.494270 -74.240150 357 2097ft 197kts
07-Dec-22 11:28 40.546071 -74.241614 358 1828ft 182kts
07-Dec-22 11:29 40.593301 -74.226485 29 1711ft 176kts
07-Dec-22 11:30 40.639150 -74.198819 25 1149ft 185kts
07-Dec-22 11:31 40.682569 -74.171225 22 462ft 172kts
07-Dec-22 11:32 40.716686 -74.138581 48 1492ft 150kts
07-Dec-22 11:33 40.747882 -74.110159 351 2606ft 135kts
07-Dec-22 11:34 40.785844 -74.124927 344 3079ft 165kts
07-Dec-22 11:35 40.799486 -74.179991 260 3002ft 178kts
07-Dec-22 11:36 40.770756 -74.228416 208 3004ft 176kts
07-Dec-22 11:37 40.727779 -74.260022 207 2987ft 178kts
07-Dec-22 11:38 40.685598 -74.293816 213 2945ft 179kts
07-Dec-22 11:39 40.642983 -74.326179 203 2952ft 179kts
07-Dec-22 11:40 40.597917 -74.351776 209 2941ft 179kts
07-Dec-22 11:41 40.553884 -74.376034 159 2921ft 177kts
07-Dec-22 11:42 40.532264 -74.321738 109 2941ft 171kts
07-Dec-22 11:43 40.549667 -74.264501 56 2592ft 180kts
07-Dec-22 11:44 40.590104 -74.226679 29 2024ft 181kts
07-Dec-22 11:45 40.634550 -74.199763 27 968ft 173kts
07-Dec-22 11:46 40.673872 -74.176803 27 195ft 156kts
07-Dec-22 11:47 40.709950 -74.148548 47 1140ft 143kts
07-Dec-22 11:48 40.736883 -74.121758 356 2703ft 121kts
07-Dec-22 11:49 40.770979 -74.142136 284 3094ft 165kts
07-Dec-22 11:50 40.763121 -74.204749 260 3023ft 179kts
07-Dec-22 11:51 40.752916 -74.269196 240 2944ft 179kts
07-Dec-22 11:52 40.712860 -74.305345 210 2986ft 177kts
07-Dec-22 11:53 40.669745 -74.336906 210 2929ft 178kts
07-Dec-22 11:54 40.622460 -74.338513 167 2924ft 174kts
07-Dec-22 11:55 40.574817 -74.326591 171 2944ft 174kts
07-Dec-22 11:56 40.550047 -74.280035 100 2995ft 170kts
07-Dec-22 11:57 40.580041 -74.232267 31 2326ft 187kts
07-Dec-22 11:58 40.627110 -74.205840 31 943ft 164kts
07-Dec-22 11:59 40.658679 -74.186784 24 518ft 102kts
07-Dec-22 12:00 40.681105 -74.172059 24 19ft 75kts
07-Dec-22 12:01 40.691819 -74.165802 0 10ft 30kts
07-Dec-22 12:02 40.693831 -74.165863 351 10ft 5kts
07-Dec-22 12:03 40.694836 -74.168461 296 10ft 0kts
07-Dec-22 12:04 40.694327 -74.168995 204 10ft 12kts
07-Dec-22 12:05 40.689903 -74.171804 207 10ft 19kts
07-Dec-22 12:06 40.685345 -74.174644 205 10ft 17kts
07-Dec-22 12:07 40.681302 -74.177645 302 10ft 7kts
07-Dec-22 12:08 40.681479 -74.180175 239 10ft 13kts
07-Dec-22 12:09 40.677008 -74.182744 179 10ft 15kts
07-Dec-22 12:10 40.676181 -74.182481 79 10ft 0kts
07-Dec-22 12:11 40.676181 -74.182481 79 10ft 0kts
07-Dec-22 12:12 40.676181 -74.182481 79 10ft 0kts

Navigation Log

Ident Type
Flight plan parsing failed, navigation log unavailable